createdAt,value
2019-02-28T00:00:12.683Z,15.37
2019-02-28T00:02:42.049Z,13.10
2019-02-28T00:05:11.534Z,17.67
2019-02-28T00:07:41.004Z,15.37
2019-02-28T00:10:12.163Z,16.10
2019-02-28T00:12:41.537Z,17.63
2019-02-28T00:15:10.898Z,13.90
2019-02-28T00:17:43.599Z,20.07
2019-02-28T00:20:11.689Z,15.93
2019-02-28T00:22:40.956Z,18.10
2019-02-28T00:25:10.413Z,17.67
2019-02-28T00:27:39.656Z,14.53
2019-02-28T00:30:09.742Z,19.87
2019-02-28T00:32:39.077Z,16.30
2019-02-28T00:35:13.296Z,15.50
2019-02-28T00:37:41.502Z,16.27
2019-02-28T00:40:11.991Z,19.70
2019-02-28T00:42:41.228Z,15.17
2019-02-28T00:45:11.215Z,16.40
2019-02-28T00:47:40.636Z,15.53
2019-02-28T00:50:10.194Z,20.37
2019-02-28T00:52:39.448Z,15.73
2019-02-28T00:55:08.905Z,14.13
2019-02-28T00:57:38.174Z,15.73
2019-02-28T01:00:10.565Z,13.00
2019-02-28T01:02:39.881Z,16.50
2019-02-28T01:05:11.568Z,14.33
2019-02-28T01:07:40.918Z,13.43
2019-02-28T01:10:10.990Z,16.33
2019-02-28T01:12:40.238Z,16.97
2019-02-28T01:15:11.727Z,14.07
2019-02-28T01:17:42.955Z,14.70
2019-02-28T01:20:16.353Z,14.53
2019-02-28T01:22:43.535Z,14.40
2019-02-28T01:25:13.432Z,14.20
2019-02-28T01:27:42.660Z,13.93
2019-02-28T01:30:12.239Z,13.27
2019-02-28T01:32:41.514Z,15.57
2019-02-28T01:35:10.996Z,15.43
2019-02-28T01:37:40.268Z,15.67
2019-02-28T01:40:10.166Z,15.20
2019-02-28T01:42:39.426Z,15.30
2019-02-28T01:45:09.966Z,14.57
2019-02-28T01:47:40.032Z,14.70
2019-02-28T01:50:10.587Z,16.30
2019-02-28T01:52:44.411Z,13.97
2019-02-28T01:55:11.058Z,14.33
2019-02-28T01:57:43.761Z,14.87
2019-02-28T02:00:13.116Z,15.00
2019-02-28T02:02:42.442Z,14.53
2019-02-28T02:05:11.914Z,14.50
2019-02-28T02:07:41.196Z,14.37
2019-02-28T02:10:21.227Z,13.17
2019-02-28T02:12:50.679Z,17.50
2019-02-28T02:15:20.081Z,15.67
2019-02-28T02:17:49.358Z,15.13
2019-02-28T02:20:19.205Z,15.20
2019-02-28T02:22:48.481Z,22.53
2019-02-28T02:25:17.892Z,17.40
2019-02-28T02:27:47.150Z,14.63
2019-02-28T02:30:19.353Z,14.40
2019-02-28T02:32:48.698Z,14.03
2019-02-28T02:35:18.179Z,18.23
2019-02-28T02:37:47.506Z,14.30
2019-02-28T02:40:17.147Z,12.87
2019-02-28T02:42:48.683Z,14.60
2019-02-28T02:45:17.871Z,16.07
2019-02-28T02:47:47.785Z,12.30
2019-02-28T02:50:17.101Z,13.27
2019-02-28T02:52:46.503Z,16.53
2019-02-28T02:55:16.481Z,12.73
2019-02-28T02:57:50.575Z,17.10
2019-02-28T03:00:17.307Z,16.37
2019-02-28T03:02:46.880Z,13.97
2019-02-28T03:05:18.089Z,14.47
2019-02-28T03:07:47.406Z,15.87
2019-02-28T03:10:18.014Z,13.80
2019-02-28T03:12:48.115Z,14.17
2019-02-28T03:15:25.516Z,14.40
2019-02-28T03:17:48.966Z,16.30
2019-02-28T03:20:18.740Z,11.53
2019-02-28T03:22:50.777Z,13.47
2019-02-28T03:25:20.182Z,15.10
2019-02-28T03:27:55.082Z,12.43
2019-02-28T03:30:27.843Z,14.73
2019-02-28T03:32:51.468Z,14.03
2019-02-28T03:35:20.960Z,12.20
2019-02-28T03:37:50.278Z,13.70
2019-02-28T03:40:19.706Z,12.10
2019-02-28T03:42:49.111Z,12.37
2019-02-28T03:45:18.991Z,12.83
2019-02-28T03:47:48.255Z,13.90
2019-02-28T03:50:21.953Z,11.37
2019-02-28T03:52:48.635Z,12.60
2019-02-28T03:55:18.037Z,12.70
2019-02-28T03:57:47.311Z,12.10
2019-02-28T04:00:18.099Z,14.70
2019-02-28T04:02:47.482Z,14.80
2019-02-28T04:05:18.014Z,12.70
2019-02-28T04:07:52.920Z,18.83
2019-02-28T04:10:22.059Z,15.93
2019-02-28T04:12:49.346Z,14.60
2019-02-28T04:15:18.949Z,14.53
2019-02-28T04:17:48.233Z,17.83
2019-02-28T04:20:17.754Z,15.53
2019-02-28T04:22:47.073Z,14.93
2019-02-28T04:25:22.772Z,18.90
2019-02-28T04:27:47.498Z,20.57
2019-02-28T04:30:17.641Z,19.50
2019-02-28T04:32:47.025Z,17.23
2019-02-28T04:35:16.459Z,17.03
2019-02-28T04:37:47.284Z,18.43
2019-02-28T04:40:16.932Z,18.03
2019-02-28T04:42:46.178Z,18.53
2019-02-28T04:45:16.209Z,17.50
2019-02-28T04:47:45.472Z,23.43
2019-02-28T04:50:14.828Z,19.90
2019-02-28T04:52:47.939Z,18.07
2019-02-28T04:55:16.760Z,17.13
2019-02-28T04:57:46.348Z,18.37
2019-02-28T05:00:15.938Z,19.30
2019-02-28T05:02:45.214Z,20.97
2019-02-28T05:05:14.821Z,16.67
2019-02-28T05:07:44.617Z,18.13
2019-02-28T05:10:16.200Z,18.97
2019-02-28T05:12:45.497Z,15.60
2019-02-28T05:15:14.976Z,17.47
2019-02-28T05:17:44.261Z,17.47
2019-02-28T05:20:14.121Z,14.77
2019-02-28T05:22:43.995Z,17.37
2019-02-28T05:25:17.378Z,17.50
2019-02-28T05:27:45.057Z,16.17
2019-02-28T05:30:18.032Z,15.10
2019-02-28T05:32:45.756Z,16.27
2019-02-28T05:35:15.301Z,13.57
2019-02-28T05:37:48.287Z,16.40
2019-02-28T05:40:15.828Z,13.63
2019-02-28T05:42:45.390Z,12.37
2019-02-28T05:45:15.769Z,11.30
2019-02-28T05:47:47.249Z,10.37
2019-02-28T05:50:17.502Z,11.70
2019-02-28T05:52:47.159Z,11.00
2019-02-28T05:55:17.781Z,11.93
2019-02-28T05:57:47.049Z,13.33
2019-02-28T06:00:17.644Z,11.63
2019-02-28T06:02:47.221Z,14.67
2019-02-28T06:05:17.168Z,12.67
2019-02-28T06:07:52.577Z,13.23
2019-02-28T06:10:24.725Z,14.10
2019-02-28T06:12:53.062Z,13.80
2019-02-28T06:15:22.471Z,11.27
2019-02-28T06:17:54.677Z,13.07
2019-02-28T06:20:25.720Z,13.13
2019-02-28T06:22:55.176Z,13.10
2019-02-28T06:25:25.657Z,10.53
2019-02-28T06:27:55.173Z,10.33
2019-02-28T06:30:24.654Z,9.83
2019-02-28T06:32:57.759Z,7.97
2019-02-28T06:35:25.126Z,10.90
2019-02-28T06:37:54.670Z,9.63
2019-02-28T06:40:23.973Z,10.07
2019-02-28T06:42:53.361Z,10.30
2019-02-28T06:45:22.861Z,12.40
2019-02-28T06:47:52.313Z,8.77
2019-02-28T06:50:22.635Z,11.20
2019-02-28T06:52:51.972Z,11.50
2019-02-28T06:55:24.145Z,9.83
2019-02-28T06:57:55.112Z,11.80
2019-02-28T07:00:26.984Z,7.43
2019-02-28T07:02:56.338Z,10.80
2019-02-28T07:05:26.357Z,9.73
2019-02-28T07:07:55.954Z,12.67
2019-02-28T07:10:27.198Z,10.30
2019-02-28T07:12:56.373Z,10.37
2019-02-28T07:15:38.273Z,10.13
2019-02-28T07:18:08.224Z,10.63
2019-02-28T07:20:37.626Z,10.50
2019-02-28T07:23:08.928Z,11.20
2019-02-28T07:25:39.605Z,11.50
2019-02-28T07:28:08.868Z,12.40
2019-02-28T07:30:38.260Z,8.57
2019-02-28T07:33:10.739Z,10.83
2019-02-28T07:35:40.293Z,10.77
2019-02-28T07:38:09.659Z,19.23
2019-02-28T07:40:39.132Z,12.47
2019-02-28T07:43:13.054Z,9.67
2019-02-28T07:45:41.194Z,13.57
2019-02-28T07:48:10.553Z,13.63
2019-02-28T07:50:43.302Z,11.27
2019-02-28T07:53:11.265Z,12.63
2019-02-28T07:55:41.760Z,11.37
2019-02-28T07:58:13.015Z,12.03
2019-02-28T08:00:42.442Z,12.13
2019-02-28T08:03:12.914Z,14.63
2019-02-28T08:05:43.330Z,10.40
2019-02-28T08:08:12.886Z,13.93
2019-02-28T08:10:42.290Z,9.83
2019-02-28T08:13:11.593Z,11.43
2019-02-28T08:15:40.978Z,14.93
2019-02-28T08:18:10.356Z,12.70
2019-02-28T08:20:41.373Z,8.40
2019-02-28T08:23:12.701Z,10.67
2019-02-28T08:25:42.805Z,11.33
2019-02-28T08:28:12.925Z,8.77
2019-02-28T08:30:42.257Z,10.43
2019-02-28T08:33:11.720Z,11.50
2019-02-28T08:35:43.267Z,11.33
2019-02-28T08:38:12.864Z,9.67
2019-02-28T08:40:42.191Z,11.80
2019-02-28T08:43:13.554Z,13.23
2019-02-28T08:45:42.609Z,14.47
2019-02-28T08:48:12.822Z,12.88
2019-02-28T08:50:42.465Z,13.60
2019-02-28T08:53:12.472Z,12.30
2019-02-28T08:55:44.393Z,10.40
2019-02-28T08:58:13.980Z,11.90
2019-02-28T09:00:43.297Z,13.78
2019-02-28T09:03:13.125Z,12.10
2019-02-28T09:05:42.597Z,15.35
2019-02-28T09:08:12.315Z,12.70
2019-02-28T09:10:43.699Z,14.65
2019-02-28T09:13:12.705Z,16.70
2019-02-28T09:15:42.158Z,23.00
2019-02-28T09:18:11.526Z,15.95
2019-02-28T09:20:45.128Z,13.53
2019-02-28T09:23:13.565Z,12.90
2019-02-28T09:25:42.913Z,10.68
2019-02-28T09:28:13.030Z,16.27
2019-02-28T09:30:43.769Z,8.95
2019-02-28T09:33:16.091Z,13.20
2019-02-28T09:35:46.501Z,9.78
2019-02-28T09:38:16.857Z,19.23
2019-02-28T09:40:51.525Z,10.88
2019-02-28T09:43:23.963Z,10.65
2019-02-28T09:45:56.193Z,9.35
2019-02-28T09:48:27.433Z,11.25
2019-02-28T09:51:04.497Z,13.60
2019-02-28T09:53:34.529Z,13.03
2019-02-28T09:56:09.438Z,11.73
2019-02-28T09:58:39.873Z,13.45
2019-02-28T10:01:14.786Z,16.15
2019-02-28T10:03:48.012Z,16.90
2019-02-28T10:06:21.013Z,14.80
2019-02-28T10:08:53.174Z,19.73
2019-02-28T10:11:24.431Z,22.00
2019-02-28T10:13:54.566Z,18.48
2019-02-28T10:16:26.973Z,17.12
2019-02-28T10:19:02.828Z,16.85
2019-02-28T10:21:39.483Z,18.90
2019-02-28T10:24:14.706Z,23.05
2019-02-28T10:26:51.497Z,20.40
2019-02-28T10:29:22.661Z,25.32
2019-02-28T10:31:56.789Z,32.78
2019-02-28T10:34:32.516Z,19.87
2019-02-28T10:37:06.011Z,20.48
2019-02-28T10:39:40.321Z,18.67
2019-02-28T10:42:13.041Z,19.77
2019-02-28T10:44:52.629Z,20.08
2019-02-28T10:47:28.199Z,24.52
2019-02-28T10:49:58.267Z,27.35
2019-02-28T10:52:31.251Z,17.40
2019-02-28T10:55:03.433Z,18.05
2019-02-28T10:57:34.163Z,25.60
2019-02-28T11:00:08.678Z,25.85
2019-02-28T11:02:39.768Z,23.70
2019-02-28T11:05:19.610Z,20.80
2019-02-28T11:07:52.565Z,15.72
2019-02-28T11:10:23.187Z,21.37
2019-02-28T11:12:54.246Z,18.45
2019-02-28T11:15:30.387Z,18.30
2019-02-28T11:18:00.331Z,21.45
2019-02-28T11:20:34.196Z,16.73
2019-02-28T11:23:14.247Z,21.35
2019-02-28T11:25:46.525Z,23.38
2019-02-28T11:28:19.453Z,22.75
2019-02-28T11:30:51.298Z,18.50
2019-02-28T11:33:24.360Z,20.85
2019-02-28T11:36:09.223Z,22.45
2019-02-28T11:38:39.916Z,20.37
2019-02-28T11:41:15.490Z,22.65
2019-02-28T11:43:50.771Z,18.40
2019-02-28T11:46:23.180Z,19.37
2019-02-28T11:48:55.127Z,18.27
2019-02-28T11:51:27.801Z,21.97
2019-02-28T11:54:04.016Z,18.92
2019-02-28T11:56:35.134Z,21.37
2019-02-28T11:59:07.903Z,19.70
2019-02-28T12:01:42.422Z,22.30
2019-02-28T12:04:12.519Z,21.70
2019-02-28T12:06:43.193Z,23.35
2019-02-28T12:09:16.242Z,19.87
2019-02-28T12:11:52.290Z,19.80
2019-02-28T12:14:22.834Z,20.32
2019-02-28T12:16:59.353Z,18.98
2019-02-28T12:19:31.020Z,23.50
2019-02-28T12:22:09.213Z,21.82
2019-02-28T12:24:37.053Z,24.57
2019-02-28T12:27:12.180Z,23.75
2019-02-28T12:29:45.645Z,22.13
2019-02-28T12:32:17.795Z,24.72
2019-02-28T12:34:49.199Z,26.33
2019-02-28T12:37:22.247Z,22.67
2019-02-28T12:39:54.186Z,22.50
2019-02-28T12:42:26.359Z,19.50
2019-02-28T12:45:05.070Z,21.60
2019-02-28T12:47:38.629Z,26.20
2019-02-28T12:50:20.098Z,23.07
2019-02-28T12:52:54.764Z,22.30
2019-02-28T12:55:27.318Z,20.80
2019-02-28T12:57:58.671Z,18.67
2019-02-28T13:00:34.373Z,17.90
2019-02-28T13:03:05.083Z,21.97
2019-02-28T13:05:35.182Z,21.35
2019-02-28T13:08:11.838Z,22.10
2019-02-28T13:10:42.290Z,21.73
2019-02-28T13:13:14.135Z,21.87
2019-02-28T13:15:49.104Z,24.55
2019-02-28T13:18:19.630Z,25.37
2019-02-28T13:20:54.066Z,22.48
2019-02-28T13:23:24.742Z,27.30
2019-02-28T13:26:00.110Z,22.60
2019-02-28T13:28:34.759Z,19.70
2019-02-28T13:31:06.075Z,20.43
2019-02-28T13:33:36.913Z,20.55
2019-02-28T13:36:08.493Z,26.50
2019-02-28T13:38:42.125Z,21.73
2019-02-28T13:41:18.198Z,20.33
2019-02-28T13:43:54.714Z,19.50
2019-02-28T13:46:32.459Z,18.40
2019-02-28T13:49:16.310Z,21.55
2019-02-28T13:51:48.974Z,24.95
2019-02-28T13:54:21.823Z,25.35
2019-02-28T13:56:55.089Z,21.93
2019-02-28T13:59:28.496Z,24.00
2019-02-28T14:01:58.405Z,20.30
2019-02-28T14:04:29.818Z,21.75
2019-02-28T14:06:59.174Z,18.63
2019-02-28T14:09:28.650Z,21.80
2019-02-28T14:11:58.553Z,32.90
2019-02-28T14:14:27.965Z,19.02
2019-02-28T14:16:58.299Z,22.22
2019-02-28T14:19:32.130Z,20.27
2019-02-28T14:22:01.757Z,19.73
2019-02-28T14:24:32.019Z,26.07
2019-02-28T14:27:05.393Z,21.68
2019-02-28T14:29:38.624Z,21.12
2019-02-28T14:32:10.810Z,21.85
2019-02-28T14:34:40.185Z,17.97
2019-02-28T14:37:09.448Z,17.60
2019-02-28T14:39:39.748Z,18.57
2019-02-28T14:42:09.892Z,19.70
2019-02-28T14:44:41.221Z,20.45
2019-02-28T14:47:13.845Z,17.62
2019-02-28T14:49:43.856Z,20.90
2019-02-28T14:52:14.413Z,20.97
2019-02-28T14:54:44.215Z,18.20
2019-02-28T14:57:16.578Z,18.37
2019-02-28T14:59:44.530Z,21.68
2019-02-28T15:02:13.883Z,17.90
2019-02-28T15:04:45.823Z,20.13
2019-02-28T15:07:15.249Z,20.75
2019-02-28T15:09:44.485Z,18.17
2019-02-28T15:12:14.101Z,18.67
2019-02-28T15:14:44.713Z,17.43
2019-02-28T15:17:14.461Z,20.47
2019-02-28T15:19:43.802Z,21.80
2019-02-28T15:22:14.277Z,17.67
2019-02-28T15:24:45.716Z,22.20
2019-02-28T15:27:15.223Z,17.03
2019-02-28T15:29:45.717Z,18.00
2019-02-28T15:32:17.173Z,23.80
2019-02-28T15:34:46.079Z,18.73
2019-02-28T15:37:15.338Z,18.47
2019-02-28T15:39:44.674Z,18.87
2019-02-28T15:42:14.055Z,24.45
2019-02-28T15:44:50.566Z,21.93
2019-02-28T15:47:23.229Z,19.40
2019-02-28T15:49:51.510Z,18.93
2019-02-28T15:52:23.882Z,20.87
2019-02-28T15:54:56.954Z,22.83
2019-02-28T15:57:26.790Z,23.50
2019-02-28T16:00:01.974Z,20.97
2019-02-28T16:02:31.383Z,24.30
2019-02-28T16:05:05.201Z,21.33
2019-02-28T16:07:34.528Z,22.97
2019-02-28T16:10:04.029Z,26.10
2019-02-28T16:12:36.676Z,23.70
2019-02-28T16:15:11.923Z,25.13
2019-02-28T16:17:41.892Z,25.17
2019-02-28T16:20:12.366Z,21.17
2019-02-28T16:22:42.129Z,24.43
2019-02-28T16:25:17.501Z,24.27
2019-02-28T16:27:47.162Z,26.93
2019-02-28T16:30:17.858Z,23.70
2019-02-28T16:32:49.211Z,24.03
2019-02-28T16:35:18.362Z,25.10
2019-02-28T16:37:51.524Z,24.87
2019-02-28T16:40:27.208Z,27.97
2019-02-28T16:42:59.694Z,23.50
2019-02-28T16:45:41.976Z,22.47
2019-02-28T16:48:17.208Z,29.17
2019-02-28T16:50:50.582Z,32.17
2019-02-28T16:53:21.203Z,25.43
2019-02-28T16:56:05.731Z,27.97
2019-02-28T16:58:57.258Z,27.73
2019-02-28T17:01:29.390Z,26.77
2019-02-28T17:04:08.789Z,29.07
2019-02-28T17:06:47.028Z,27.47
2019-02-28T17:10:04.588Z,30.40
2019-02-28T17:12:55.505Z,35.40
2019-02-28T17:15:33.744Z,31.97
2019-02-28T17:18:21.104Z,27.83
2019-02-28T17:20:51.112Z,28.13
2019-02-28T17:23:29.576Z,31.60
2019-02-28T17:26:13.022Z,33.50
2019-02-28T17:29:08.395Z,33.53
2019-02-28T17:31:48.090Z,28.67
2019-02-28T17:34:25.525Z,32.63
2019-02-28T17:36:54.957Z,34.10
2019-02-28T17:39:30.068Z,29.10
2019-02-28T17:42:08.122Z,34.83
2019-02-28T17:45:02.027Z,29.93
2019-02-28T17:48:15.143Z,33.20
2019-02-28T17:50:56.309Z,27.73
2019-02-28T17:54:17.286Z,33.73
2019-02-28T17:57:11.692Z,30.83
2019-02-28T18:00:12.969Z,30.17
2019-02-28T18:03:09.823Z,29.00
2019-02-28T18:06:47.233Z,30.40
2019-02-28T18:10:00.798Z,31.33
2019-02-28T18:13:26.813Z,28.80
2019-02-28T18:16:25.686Z,32.43
2019-02-28T18:22:56.233Z,30.60
2019-02-28T18:26:01.949Z,29.73
2019-02-28T18:29:24.939Z,34.00
2019-02-28T18:31:57.126Z,31.03
2019-02-28T18:34:28.394Z,31.20
2019-02-28T18:36:58.223Z,24.10
2019-02-28T18:39:29.917Z,26.63
2019-02-28T18:42:00.462Z,29.33
2019-02-28T18:44:29.774Z,29.63
2019-02-28T18:47:03.003Z,26.40
2019-02-28T18:49:30.189Z,29.23
2019-02-28T18:51:59.958Z,30.40
2019-02-28T18:54:30.504Z,25.43
2019-02-28T18:56:59.954Z,31.00
2019-02-28T18:59:29.803Z,30.20
2019-02-28T19:01:59.167Z,31.60
2019-02-28T19:04:28.611Z,28.57
2019-02-28T19:06:58.091Z,28.43
2019-02-28T19:09:27.644Z,28.97
2019-02-28T19:11:56.989Z,25.50
2019-02-28T19:14:26.375Z,30.20
2019-02-28T19:16:55.766Z,30.10
2019-02-28T19:19:25.025Z,29.73
2019-02-28T19:21:54.426Z,30.53
2019-02-28T19:24:23.947Z,29.43
2019-02-28T19:26:53.249Z,25.47
2019-02-28T19:29:22.904Z,23.70
2019-02-28T19:31:52.240Z,29.87
2019-02-28T19:34:23.397Z,26.40
2019-02-28T19:36:52.815Z,31.87
2019-02-28T19:39:22.676Z,27.23
2019-02-28T19:41:51.983Z,23.30
2019-02-28T19:44:21.466Z,26.03
2019-02-28T19:46:50.861Z,26.33
2019-02-28T19:49:20.879Z,25.70
2019-02-28T19:51:52.491Z,23.77
2019-02-28T19:54:21.767Z,25.60
2019-02-28T19:56:51.147Z,24.73
2019-02-28T19:59:20.679Z,21.73
2019-02-28T20:01:49.993Z,19.93
2019-02-28T20:04:20.340Z,25.57
2019-02-28T20:06:49.673Z,27.97
2019-02-28T20:09:20.874Z,22.23
2019-02-28T20:11:50.181Z,22.73
2019-02-28T20:14:19.578Z,20.73
2019-02-28T20:16:50.197Z,19.93
2019-02-28T20:19:19.716Z,17.90
2019-02-28T20:21:49.137Z,24.47
2019-02-28T20:24:18.883Z,23.73
2019-02-28T20:26:48.397Z,20.17
2019-02-28T20:29:19.214Z,22.07
2019-02-28T20:31:48.817Z,23.30
2019-02-28T20:34:18.223Z,25.50
2019-02-28T20:36:47.681Z,22.70
2019-02-28T20:39:16.941Z,18.53
2019-02-28T20:41:46.301Z,22.20
2019-02-28T20:44:16.311Z,23.53
2019-02-28T20:46:45.826Z,19.97
2019-02-28T20:49:15.227Z,18.53
2019-02-28T20:51:44.653Z,21.67
2019-02-28T20:54:15.037Z,20.87
2019-02-28T20:56:44.371Z,21.17
2019-02-28T20:59:13.838Z,20.10
2019-02-28T21:01:43.367Z,25.30
2019-02-28T21:04:12.790Z,20.10
2019-02-28T21:06:43.677Z,18.13
2019-02-28T21:09:14.749Z,22.10
2019-02-28T21:11:44.309Z,22.57
2019-02-28T21:14:13.606Z,20.07
2019-02-28T21:16:43.390Z,20.93
2019-02-28T21:19:12.741Z,21.87
2019-02-28T21:21:42.672Z,24.80
2019-02-28T21:24:14.526Z,23.10
2019-02-28T21:26:44.005Z,23.83
2019-02-28T21:29:13.618Z,20.67
2019-02-28T21:31:47.279Z,23.90
2019-02-28T21:34:18.442Z,21.97
2019-02-28T21:36:48.109Z,22.47
2019-02-28T21:39:17.361Z,24.37
2019-02-28T21:41:46.838Z,20.80
2019-02-28T21:44:16.109Z,22.40
2019-02-28T21:46:45.541Z,20.83
2019-02-28T21:49:15.354Z,23.30
2019-02-28T21:51:44.753Z,24.17
2019-02-28T21:54:14.125Z,21.20
2019-02-28T21:56:43.562Z,25.77
2019-02-28T21:59:13.037Z,22.83
2019-02-28T22:01:45.517Z,20.97
2019-02-28T22:04:15.092Z,21.60
2019-02-28T22:06:44.399Z,24.97
2019-02-28T22:09:14.053Z,22.80
2019-02-28T22:11:43.324Z,22.17
2019-02-28T22:14:14.755Z,22.23
2019-02-28T22:16:47.031Z,23.27
2019-02-28T22:19:16.445Z,21.80
2019-02-28T22:21:45.718Z,22.03
2019-02-28T22:24:15.322Z,24.70
2019-02-28T22:26:44.736Z,25.93
2019-02-28T22:29:14.204Z,22.57
2019-02-28T22:32:05.352Z,25.30
2019-02-28T22:35:05.961Z,24.63
2019-02-28T22:37:35.237Z,21.63
2019-02-28T22:40:05.066Z,22.33
2019-02-28T22:42:34.600Z,24.43
2019-02-28T22:45:04.225Z,21.50
2019-02-28T22:47:33.711Z,22.67
2019-02-28T22:50:03.462Z,28.60
2019-02-28T22:52:32.789Z,24.57
2019-02-28T22:55:03.574Z,23.60
2019-02-28T22:57:33.514Z,23.07
2019-02-28T23:00:02.948Z,21.77
2019-02-28T23:02:32.445Z,22.27
2019-02-28T23:05:01.921Z,24.17
2019-02-28T23:07:31.732Z,23.57
2019-02-28T23:10:01.094Z,23.47
2019-02-28T23:12:30.707Z,24.57
2019-02-28T23:15:00.332Z,27.50
2019-02-28T23:17:31.737Z,31.53
2019-02-28T23:20:01.515Z,27.23
2019-02-28T23:22:30.794Z,29.57
2019-02-28T23:25:01.541Z,27.47
2019-02-28T23:27:30.884Z,32.17
2019-02-28T23:30:50.946Z,28.73
2019-02-28T23:33:20.469Z,28.43
2019-02-28T23:35:52.157Z,25.03
2019-02-28T23:38:21.980Z,25.30
2019-02-28T23:40:51.846Z,30.20
2019-02-28T23:43:22.730Z,27.93
2019-02-28T23:45:52.145Z,25.67
2019-02-28T23:48:42.348Z,25.60
2019-02-28T23:51:11.692Z,26.27
2019-02-28T23:53:42.229Z,29.60
2019-02-28T23:56:13.630Z,26.47
2019-02-28T23:58:48.109Z,30.63
